Time;durP1;ratioP1;P1;durP2;ratioP2;P2;SDS_P1;SDS_P2;PMS_P1;PMS_P2;Temp;Humidity;BMP_temperature;BMP_pressure;BME280_temperature;BME280_humidity;BME280_pressure;Samples;Min_cycle;Max_cycle;Signal;HPM_P1;HPM_P2
2021/09/11 00:00:51;;;;;;;1.25;1.17;;;14.20;99.90;;;;;;5067299;28;20199;-78
2021/09/11 00:03:17;;;;;;;1.42;1.33;;;14.30;99.90;;;;;;5068522;28;20195;-79
2021/09/11 00:05:43;;;;;;;3.13;2.00;;;14.20;99.90;;;;;;5067218;28;20230;-79
2021/09/11 00:08:09;;;;;;;0.90;0.90;;;14.20;99.90;;;;;;5067057;28;20177;-79
2021/09/11 00:10:36;;;;;;;0.25;0.25;;;14.10;99.90;;;;;;5068456;28;20551;-79
2021/09/11 00:13:03;;;;;;;0.40;0.40;;;14.10;99.90;;;;;;5050387;28;20244;-79
2021/09/11 00:15:32;;;;;;;1.00;0.95;;;14.00;99.90;;;;;;5050196;28;20189;-79
2021/09/11 00:18:03;;;;;;;0.70;0.70;;;14.00;99.90;;;;;;5068368;28;20157;-79
2021/09/11 00:20:30;;;;;;;0.32;0.32;;;14.00;99.90;;;;;;5050285;28;20177;-78
2021/09/11 00:22:57;;;;;;;0.52;0.52;;;14.10;99.90;;;;;;5068184;28;20164;-77
2021/09/11 00:25:24;;;;;;;0.20;0.20;;;14.20;99.90;;;;;;5050198;28;20196;-78
2021/09/11 00:27:50;;;;;;;1.48;1.38;;;14.20;99.90;;;;;;5050238;28;20267;-79
2021/09/11 00:30:16;;;;;;;1.23;1.10;;;14.10;99.90;;;;;;5050252;28;20224;-79
2021/09/11 00:32:43;;;;;;;1.88;1.33;;;14.00;99.90;;;;;;5069074;28;20164;-79
2021/09/11 00:35:14;;;;;;;1.20;1.10;;;14.10;99.90;;;;;;5050777;28;20563;-79
2021/09/11 00:37:41;;;;;;;0.40;0.40;;;14.00;99.90;;;;;;5050269;28;20184;-79
2021/09/11 00:40:09;;;;;;;0.80;0.35;;;14.00;99.90;;;;;;5067880;28;20164;-78
2021/09/11 00:42:35;;;;;;;1.00;0.93;;;14.00;99.90;;;;;;5050143;28;20300;-78
2021/09/11 00:45:02;;;;;;;1.02;0.68;;;14.10;99.90;;;;;;5050003;28;20285;-79
2021/09/11 00:47:28;;;;;;;0.55;0.55;;;14.00;99.90;;;;;;5049995;28;20183;-79
2021/09/11 00:49:54;;;;;;;0.98;0.80;;;14.10;99.90;;;;;;5067466;28;20251;-79
2021/09/11 00:52:22;;;;;;;4.35;1.42;;;14.30;99.90;;;;;;5046450;28;20208;-80
2021/09/11 00:54:49;;;;;;;0.65;0.65;;;14.20;99.90;;;;;;5029950;28;20227;-80
2021/09/11 00:57:15;;;;;;;1.10;0.98;;;14.30;99.90;;;;;;5057948;28;20183;-79
2021/09/11 00:59:41;;;;;;;0.90;0.90;;;14.30;99.90;;;;;;5067889;28;20164;-79
2021/09/11 01:02:08;;;;;;;2.10;0.82;;;14.30;99.90;;;;;;5049754;28;20181;-80
2021/09/11 01:04:34;;;;;;;1.02;1.02;;;14.20;99.90;;;;;;5049932;28;20176;-79
2021/09/11 01:07:00;;;;;;;1.23;1.20;;;14.10;99.90;;;;;;5049878;28;20172;-79
2021/09/11 01:09:27;;;;;;;1.98;0.90;;;14.10;99.90;;;;;;5067975;28;20188;-80
2021/09/11 01:11:53;;;;;;;0.50;0.43;;;14.10;99.90;;;;;;5049934;28;20176;-80
2021/09/11 01:14:19;;;;;;;0.93;0.93;;;14.10;99.90;;;;;;5049830;28;20180;-80
2021/09/11 01:16:45;;;;;;;0.82;0.82;;;14.10;99.90;;;;;;5067761;28;20199;-80
2021/09/11 01:19:11;;;;;;;1.23;1.13;;;14.00;99.90;;;;;;5049590;28;20206;-81
2021/09/11 01:21:37;;;;;;;1.80;1.58;;;14.00;99.90;;;;;;5049788;28;20332;-81
2021/09/11 01:24:03;;;;;;;0.60;0.60;;;14.00;99.90;;;;;;5049697;28;20211;-81
2021/09/11 01:26:29;;;;;;;0.95;0.95;;;13.90;99.90;;;;;;5067700;28;20196;-79
2021/09/11 01:28:55;;;;;;;4.90;0.75;;;13.90;99.90;;;;;;5067880;28;20165;-79
2021/09/11 01:31:21;;;;;;;0.98;0.98;;;13.90;99.90;;;;;;5070405;28;20160;-79
2021/09/11 01:33:47;;;;;;;2.75;2.40;;;13.90;99.90;;;;;;5052943;28;20176;-79
2021/09/11 01:36:13;;;;;;;0.98;0.68;;;13.80;99.90;;;;;;5069409;28;20628;-79
2021/09/11 01:38:38;;;;;;;0.10;0.10;;;13.80;99.90;;;;;;5067637;28;20157;-80
2021/09/11 01:41:04;;;;;;;1.70;1.48;;;13.80;99.90;;;;;;5067576;28;20180;-80
2021/09/11 01:43:33;;;;;;;2.85;2.05;;;13.80;99.90;;;;;;5049403;28;20165;-80
2021/09/11 01:45:59;;;;;;;0.93;0.93;;;13.70;99.90;;;;;;5049449;28;20193;-80
2021/09/11 01:48:26;;;;;;;0.57;0.57;;;13.60;99.90;;;;;;5049533;28;20239;-80
2021/09/11 01:50:53;;;;;;;0.40;0.40;;;13.60;99.90;;;;;;5067102;28;20231;-80
2021/09/11 01:53:20;;;;;;;0.98;0.98;;;13.50;99.90;;;;;;5051451;28;20164;-80
2021/09/11 01:55:47;;;;;;;0.68;0.68;;;13.30;99.90;;;;;;5070834;28;20157;-80
2021/09/11 01:58:13;;;;;;;1.27;0.57;;;13.30;99.90;;;;;;5053014;28;20164;-79
2021/09/11 02:00:39;;;;;;;0.45;0.45;;;13.30;99.90;;;;;;5070799;28;20239;-79
2021/09/11 02:03:06;;;;;;;1.23;0.68;;;13.20;99.90;;;;;;5070959;28;20168;-79
2021/09/11 02:05:33;;;;;;;1.00;0.85;;;13.10;99.90;;;;;;5070911;28;20159;-79
2021/09/11 02:07:59;;;;;;;0.43;0.43;;;13.00;99.90;;;;;;5070735;28;20157;-79
2021/09/11 02:10:25;;;;;;;0.82;0.73;;;12.90;99.90;;;;;;5070921;28;20213;-80
2021/09/11 02:12:51;;;;;;;1.55;1.55;;;12.90;99.90;;;;;;5052766;28;20179;-80
2021/09/11 02:15:17;;;;;;;0.93;0.93;;;12.90;99.90;;;;;;5070652;28;20236;-79
2021/09/11 02:17:44;;;;;;;0.60;0.60;;;12.90;99.90;;;;;;5052634;28;20240;-80
2021/09/11 02:20:11;;;;;;;11.10;0.73;;;12.90;99.90;;;;;;5052428;28;20307;-80
2021/09/11 02:22:37;;;;;;;0.32;0.32;;;13.00;99.90;;;;;;5052373;28;20633;-80
2021/09/11 02:25:05;;;;;;;1.10;1.10;;;12.90;99.90;;;;;;5052618;28;20179;-81
2021/09/11 02:27:31;;;;;;;0.65;0.65;;;12.70;99.90;;;;;;5052442;28;20169;-80
2021/09/11 02:29:57;;;;;;;0.98;0.95;;;12.80;99.90;;;;;;5052240;28;20802;-81
2021/09/11 02:32:22;;;;;;;1.40;1.30;;;12.80;99.90;;;;;;5070343;28;20642;-79
2021/09/11 02:34:49;;;;;;;1.85;1.52;;;12.80;99.90;;;;;;5052216;28;20168;-79
2021/09/11 02:37:15;;;;;;;0.65;0.65;;;12.80;99.90;;;;;;5052342;28;20165;-79
2021/09/11 02:39:44;;;;;;;0.30;0.30;;;12.80;99.90;;;;;;5070505;28;20215;-81
2021/09/11 02:42:12;;;;;;;1.33;1.23;;;12.90;99.90;;;;;;5070449;28;20169;-79
2021/09/11 02:44:38;;;;;;;13.35;0.98;;;12.80;99.90;;;;;;5070123;28;20157;-79
2021/09/11 02:47:05;;;;;;;0.30;0.30;;;12.80;99.90;;;;;;5052058;28;20179;-79
2021/09/11 02:49:31;;;;;;;1.27;0.90;;;12.80;99.90;;;;;;5070034;28;20689;-77
2021/09/11 02:51:57;;;;;;;0.68;0.60;;;12.80;99.90;;;;;;5069969;28;20179;-79
2021/09/11 02:54:23;;;;;;;0.43;0.43;;;12.70;99.90;;;;;;5070262;28;20169;-79
2021/09/11 02:56:49;;;;;;;0.77;0.77;;;12.60;99.90;;;;;;5069747;28;20168;-80
2021/09/11 02:59:15;;;;;;;1.92;1.83;;;12.60;99.90;;;;;;5070101;28;20172;-82
2021/09/11 03:01:41;;;;;;;0.70;0.70;;;12.50;99.90;;;;;;5051857;28;20169;-78
2021/09/11 03:04:07;;;;;;;0.85;0.85;;;12.60;99.90;;;;;;5070097;28;20562;-78
2021/09/11 03:06:33;;;;;;;4.05;2.30;;;12.60;99.90;;;;;;5070103;28;20247;-79
2021/09/11 03:08:59;;;;;;;1.20;1.00;;;12.60;99.90;;;;;;5052351;28;20168;-78
2021/09/11 03:11:26;;;;;;;0.40;0.40;;;12.60;99.90;;;;;;5070314;28;20164;-79
2021/09/11 03:13:52;;;;;;;1.08;1.08;;;12.60;99.90;;;;;;5052364;28;20167;-78
2021/09/11 03:16:18;;;;;;;1.25;1.10;;;12.60;99.90;;;;;;5069948;28;20596;-80
2021/09/11 03:18:43;;;;;;;2.85;1.17;;;12.60;99.90;;;;;;5069762;28;20161;-78
2021/09/11 03:21:09;;;;;;;1.73;1.63;;;12.60;99.90;;;;;;5051391;28;20210;-77
2021/09/11 03:23:35;;;;;;;1.13;0.90;;;12.60;99.90;;;;;;5069850;28;20187;-79
2021/09/11 03:26:02;;;;;;;0.73;0.73;;;12.60;99.90;;;;;;5069995;28;20161;-78
2021/09/11 03:28:28;;;;;;;1.05;1.02;;;12.60;99.90;;;;;;5069195;28;20228;-78
2021/09/11 03:30:54;;;;;;;0.63;0.63;;;12.60;99.90;;;;;;5069336;28;20187;-78
2021/09/11 03:33:20;;;;;;;2.13;2.03;;;12.50;99.90;;;;;;5069253;28;20165;-77
2021/09/11 03:35:46;;;;;;;1.27;1.27;;;12.50;99.90;;;;;;5051367;28;20251;-77
2021/09/11 03:38:12;;;;;;;1.65;0.95;;;12.60;99.90;;;;;;5069036;28;20189;-79
2021/09/11 03:40:37;;;;;;;1.10;0.77;;;12.50;99.90;;;;;;5069493;28;20161;-78
2021/09/11 03:43:03;;;;;;;0.77;0.63;;;12.50;99.90;;;;;;5051548;28;20196;-78
2021/09/11 03:45:29;;;;;;;0.80;0.80;;;12.40;99.90;;;;;;5069649;28;20165;-78
2021/09/11 03:47:55;;;;;;;0.80;0.80;;;12.20;99.90;;;;;;5051254;28;20570;-78
2021/09/11 03:50:21;;;;;;;0.25;0.25;;;12.20;99.90;;;;;;5069194;28;20220;-79
2021/09/11 03:52:47;;;;;;;1.27;0.95;;;12.20;99.90;;;;;;5069531;28;20212;-79
2021/09/11 03:55:13;;;;;;;0.77;0.75;;;12.30;99.90;;;;;;5068517;28;20169;-78
2021/09/11 03:57:40;;;;;;;1.23;1.13;;;12.30;99.90;;;;;;5069144;28;20193;-78
2021/09/11 04:00:07;;;;;;;1.10;1.00;;;12.20;99.90;;;;;;5067910;28;20177;-77
2021/09/11 04:02:33;;;;;;;1.10;1.10;;;12.20;99.90;;;;;;5069241;28;20160;-80
2021/09/11 04:04:58;;;;;;;0.65;0.55;;;12.20;99.90;;;;;;5051305;28;20168;-77
2021/09/11 04:07:24;;;;;;;0.95;0.88;;;12.20;99.90;;;;;;5051371;28;20276;-77
2021/09/11 04:09:50;;;;;;;0.63;0.63;;;12.30;99.90;;;;;;5067708;28;20189;-78
2021/09/11 04:12:16;;;;;;;2.38;2.17;;;12.20;99.90;;;;;;5050735;28;20165;-78
2021/09/11 04:14:42;;;;;;;0.88;0.88;;;12.20;99.90;;;;;;5068537;28;20159;-78
2021/09/11 04:17:08;;;;;;;0.70;0.70;;;12.20;99.90;;;;;;5068595;28;20208;-78
2021/09/11 04:19:34;;;;;;;0.43;0.43;;;12.20;99.90;;;;;;5051021;28;20236;-77
2021/09/11 04:21:59;;;;;;;0.98;0.98;;;12.10;99.90;;;;;;5068931;28;20191;-77
2021/09/11 04:24:25;;;;;;;0.90;0.90;;;12.10;99.90;;;;;;5050773;28;20171;-77
2021/09/11 04:26:52;;;;;;;2.80;2.53;;;12.00;99.90;;;;;;5068433;28;20192;-77
2021/09/11 04:29:18;;;;;;;0.25;0.25;;;12.00;99.90;;;;;;5050869;28;20200;-80
2021/09/11 04:31:44;;;;;;;1.23;1.15;;;12.00;99.90;;;;;;5068784;28;20259;-78
2021/09/11 04:34:10;;;;;;;13.35;2.67;;;12.10;99.90;;;;;;5050399;28;20168;-79
2021/09/11 04:36:36;;;;;;;1.30;1.23;;;12.10;99.90;;;;;;5069128;28;20161;-79
2021/09/11 04:39:02;;;;;;;1.23;1.13;;;12.00;99.90;;;;;;5069031;28;20212;-78
2021/09/11 04:41:28;;;;;;;1.35;1.33;;;11.90;99.90;;;;;;5050432;28;20161;-77
2021/09/11 04:43:53;;;;;;;1.50;1.33;;;11.80;99.90;;;;;;5068821;28;20552;-78
2021/09/11 04:46:19;;;;;;;0.55;0.55;;;11.70;99.90;;;;;;5050949;28;20216;-77
2021/09/11 04:48:45;;;;;;;0.85;0.77;;;11.70;99.90;;;;;;5070924;28;20204;-78
2021/09/11 04:51:11;;;;;;;0.30;0.30;;;11.80;99.90;;;;;;5071389;28;20196;-77
2021/09/11 04:53:37;;;;;;;1.02;1.02;;;11.80;99.90;;;;;;5052209;28;20232;-78
2021/09/11 04:56:03;;;;;;;0.60;0.60;;;11.70;99.90;;;;;;5050216;28;20169;-78
2021/09/11 04:58:29;;;;;;;1.83;1.27;;;11.90;99.90;;;;;;5050411;28;20192;-79
2021/09/11 05:00:54;;;;;;;0.47;0.47;;;12.00;99.90;;;;;;5068326;28;20233;-79
2021/09/11 05:03:20;;;;;;;1.55;1.45;;;12.20;99.90;;;;;;5050440;28;20195;-79
2021/09/11 05:05:46;;;;;;;0.30;0.30;;;12.40;99.90;;;;;;5050163;28;20184;-78
2021/09/11 05:08:17;;;;;;;4.63;1.77;;;12.60;99.90;;;;;;5068357;28;20196;-79
2021/09/11 05:10:45;;;;;;;1.25;1.15;;;12.80;99.90;;;;;;5068042;28;20188;-78
2021/09/11 05:13:11;;;;;;;1.40;1.33;;;12.90;99.90;;;;;;5068071;28;20160;-79
2021/09/11 05:15:37;;;;;;;2.05;1.83;;;13.20;99.90;;;;;;5068256;28;20157;-78
2021/09/11 05:18:03;;;;;;;3.78;2.55;;;13.80;99.90;;;;;;5049936;28;20333;-79
2021/09/11 05:20:29;;;;;;;1.40;1.17;;;14.40;99.90;;;;;;5050073;28;20196;-79
2021/09/11 05:22:55;;;;;;;0.55;0.55;;;15.10;99.90;;;;;;5068105;28;20161;-79
2021/09/11 05:25:21;;;;;;;1.75;1.40;;;15.70;99.90;;;;;;5067902;28;20186;-79
2021/09/11 05:27:47;;;;;;;2.45;1.95;;;15.80;99.90;;;;;;5071130;28;20192;-79
2021/09/11 05:30:13;;;;;;;2.30;2.10;;;16.40;99.90;;;;;;5053798;28;20207;-79
2021/09/11 05:32:39;;;;;;;22.23;2.15;;;16.80;99.90;;;;;;5071816;28;20171;-78
2021/09/11 05:35:06;;;;;;;1.90;1.80;;;16.80;99.90;;;;;;5072347;28;20153;-78
2021/09/11 05:37:32;;;;;;;2.85;1.88;;;16.80;99.90;;;;;;5054338;28;20196;-78
2021/09/11 05:39:58;;;;;;;1.80;1.40;;;17.30;99.90;;;;;;5071843;28;20175;-78
2021/09/11 05:42:24;;;;;;;1.70;1.27;;;17.20;99.90;;;;;;5071847;28;20164;-80
2021/09/11 05:44:50;;;;;;;1.92;1.83;;;16.80;99.90;;;;;;5071986;28;20164;-77
2021/09/11 05:47:16;;;;;;;1.25;1.20;;;16.60;99.90;;;;;;5053573;28;20230;-78
2021/09/11 05:49:42;;;;;;;3.13;1.67;;;16.60;99.90;;;;;;5050292;28;20366;-79
2021/09/11 05:52:07;;;;;;;5.82;2.15;;;17.00;99.90;;;;;;5051560;28;20177;-79
2021/09/11 05:54:33;;;;;;;2.63;1.25;;;17.10;99.90;;;;;;5051394;28;20164;-79
2021/09/11 05:56:59;;;;;;;2.53;1.65;;;17.30;99.90;;;;;;5051413;28;20203;-79
2021/09/11 05:59:25;;;;;;;2.28;2.08;;;17.40;99.90;;;;;;5050056;28;20161;-79
2021/09/11 06:01:51;;;;;;;2.33;1.95;;;16.70;99.90;;;;;;5049969;28;20248;-79
2021/09/11 06:04:17;;;;;;;0.68;0.68;;;16.50;99.90;;;;;;5051380;28;20161;-79
2021/09/11 06:06:43;;;;;;;1.40;1.23;;;16.40;99.90;;;;;;5051492;28;20252;-78
2021/09/11 06:09:09;;;;;;;1.27;1.23;;;16.10;99.90;;;;;;5049600;28;20165;-77
2021/09/11 06:11:35;;;;;;;2.38;2.08;;;16.00;99.90;;;;;;5051199;28;20162;-78
2021/09/11 06:14:00;;;;;;;1.35;1.17;;;16.30;99.90;;;;;;5051143;28;20202;-78
2021/09/11 06:16:26;;;;;;;0.75;0.75;;;16.10;99.90;;;;;;5049583;28;20166;-78
2021/09/11 06:18:52;;;;;;;1.60;1.50;;;16.10;99.90;;;;;;5051359;28;20216;-79
2021/09/11 06:21:18;;;;;;;2.90;1.80;;;16.00;99.90;;;;;;5051094;28;20168;-78
2021/09/11 06:23:44;;;;;;;1.55;1.45;;;15.90;99.90;;;;;;5049476;28;20256;-77
2021/09/11 06:26:10;;;;;;;2.65;2.15;;;15.90;99.90;;;;;;5051158;28;20158;-79
2021/09/11 06:28:36;;;;;;;1.67;1.42;;;16.20;99.90;;;;;;5050677;28;20197;-79
2021/09/11 06:31:02;;;;;;;0.75;0.75;;;16.50;99.90;;;;;;5050815;28;20189;-76
2021/09/11 06:33:27;;;;;;;1.63;0.90;;;16.80;99.90;;;;;;5049592;28;20173;-77
2021/09/11 06:35:53;;;;;;;1.55;1.45;;;17.10;99.90;;;;;;5049428;28;20179;-77
2021/09/11 06:38:19;;;;;;;1.25;1.15;;;17.60;99.90;;;;;;5049894;28;20208;-77
2021/09/11 06:40:45;;;;;;;1.35;1.27;;;19.10;99.90;;;;;;5050725;28;20591;-77
2021/09/11 06:43:10;;;;;;;2.95;1.50;;;20.50;99.90;;;;;;5046714;28;20184;-79
2021/09/11 06:45:36;;;;;;;2.20;1.63;;;21.70;99.90;;;;;;5049218;28;20181;-77
2021/09/11 06:48:03;;;;;;;2.50;2.10;;;21.70;99.90;;;;;;5065818;28;20169;-77
2021/09/11 06:50:28;;;;;;;0.70;0.70;;;21.20;99.90;;;;;;5065123;28;20659;-80
2021/09/11 06:52:54;;;;;;;1.38;1.27;;;21.90;99.90;;;;;;5052501;28;20161;-80
2021/09/11 06:55:20;;;;;;;6.88;3.15;;;22.10;99.90;;;;;;5070155;28;20192;-78
2021/09/11 06:57:46;;;;;;;2.25;1.67;;;22.50;99.90;;;;;;5052215;28;20311;-79
2021/09/11 07:00:12;;;;;;;2.70;2.22;;;23.10;99.90;;;;;;5070336;28;20219;-79
2021/09/11 07:02:38;;;;;;;3.60;2.03;;;22.70;99.90;;;;;;5052514;28;20194;-80
2021/09/11 07:05:05;;;;;;;1.40;1.33;;;22.50;99.90;;;;;;5069925;28;20191;-78
2021/09/11 07:07:34;;;;;;;1.77;1.65;;;23.10;99.90;;;;;;5070215;28;20153;-78
2021/09/11 07:10:00;;;;;;;1.35;1.25;;;24.10;99.90;;;;;;5069901;28;20188;-78
2021/09/11 07:12:26;;;;;;;2.53;1.67;;;24.00;99.90;;;;;;5067979;28;20168;-79
2021/09/11 07:14:52;;;;;;;0.85;0.85;;;23.80;99.90;;;;;;5070025;28;20213;-78
2021/09/11 07:17:18;;;;;;;2.05;1.73;;;23.40;99.90;;;;;;5072043;28;20168;-79
2021/09/11 07:19:44;;;;;;;1.17;1.10;;;23.90;99.90;;;;;;5054197;28;20168;-80
2021/09/11 07:22:09;;;;;;;4.75;1.42;;;23.60;99.90;;;;;;5071496;28;20164;-80
2021/09/11 07:24:35;;;;;;;1.98;1.77;;;24.30;99.90;;;;;;5069802;28;20545;-77
2021/09/11 07:27:01;;;;;;;3.40;1.05;;;24.40;99.90;;;;;;5051638;28;20168;-77
2021/09/11 07:29:27;;;;;;;3.17;2.08;;;24.70;99.90;;;;;;5051622;28;20215;-77
2021/09/11 07:31:53;;;;;;;1.17;1.08;;;24.00;99.90;;;;;;5069262;28;20179;-77
2021/09/11 07:34:19;;;;;;;1.35;1.25;;;24.40;99.90;;;;;;5051722;28;20259;-79
2021/09/11 07:36:45;;;;;;;2.15;1.80;;;24.70;99.90;;;;;;5069594;28;20156;-79
2021/09/11 07:39:11;;;;;;;1.33;1.23;;;24.90;99.90;;;;;;5069385;28;20161;-78
2021/09/11 07:41:36;;;;;;;1.33;1.23;;;24.30;99.90;;;;;;5051088;28;20167;-78
2021/09/11 07:44:03;;;;;;;4.70;1.40;;;24.50;99.90;;;;;;5069305;28;20223;-77
2021/09/11 07:46:29;;;;;;;1.50;1.40;;;24.40;99.90;;;;;;5051056;28;20346;-78
2021/09/11 07:48:54;;;;;;;1.70;1.50;;;25.10;99.90;;;;;;5050837;28;20160;-77
2021/09/11 07:51:20;;;;;;;1.33;1.23;;;25.20;99.90;;;;;;5068234;28;20192;-77
2021/09/11 07:53:46;;;;;;;1.15;1.08;;;24.20;99.90;;;;;;5068741;28;20184;-79
2021/09/11 07:56:12;;;;;;;0.60;0.60;;;25.10;99.90;;;;;;5068750;28;20164;-78
2021/09/11 07:58:38;;;;;;;1.42;1.10;;;23.80;99.90;;;;;;5064611;28;20175;-77
2021/09/11 08:01:04;;;;;;;1.15;1.02;;;24.20;99.90;;;;;;5068719;28;20198;-76
2021/09/11 08:03:30;;;;;;;1.17;1.08;;;23.90;99.90;;;;;;5050958;28;20234;-77
2021/09/11 08:05:56;;;;;;;3.85;1.17;;;24.40;99.90;;;;;;5069374;28;20160;-79
2021/09/11 08:08:23;;;;;;;1.95;1.60;;;24.10;99.90;;;;;;5068066;28;20176;-78
2021/09/11 08:10:50;;;;;;;2.13;1.77;;;25.00;99.90;;;;;;5051333;28;20204;-77
2021/09/11 08:13:16;;;;;;;4.32;1.00;;;25.50;99.90;;;;;;5067647;28;20251;-76
2021/09/11 08:15:43;;;;;;;2.00;1.48;;;26.10;99.90;;;;;;5051399;28;20167;-79
2021/09/11 08:18:10;;;;;;;0.77;0.77;;;26.00;99.90;;;;;;5068010;28;20164;-78
2021/09/11 08:20:37;;;;;;;1.20;0.93;;;25.90;99.90;;;;;;5067415;28;20192;-77
2021/09/11 08:23:04;;;;;;;8.95;1.52;;;25.50;99.90;;;;;;5068300;28;20168;-79
2021/09/11 08:25:30;;;;;;;1.23;1.00;;;25.50;99.90;;;;;;5068888;28;20199;-78
2021/09/11 08:27:56;;;;;;;1.02;0.85;;;25.60;99.90;;;;;;5068610;28;20160;-78
2021/09/11 08:30:22;;;;;;;1.05;1.05;;;25.50;99.90;;;;;;5068836;28;20188;-77
2021/09/11 08:32:48;;;;;;;4.68;1.92;;;25.30;99.90;;;;;;5050400;28;20179;-78
2021/09/11 08:35:14;;;;;;;1.70;1.13;;;25.80;99.90;;;;;;5068195;28;20195;-77
2021/09/11 08:37:41;;;;;;;3.53;1.50;;;26.40;99.90;;;;;;5068340;28;20160;-78
2021/09/11 08:40:07;;;;;;;0.95;0.88;;;26.00;99.90;;;;;;5068166;28;20191;-79
2021/09/11 08:42:34;;;;;;;0.75;0.75;;;25.40;99.90;;;;;;5068278;28;20168;-79
2021/09/11 08:45:00;;;;;;;0.95;0.95;;;25.40;99.90;;;;;;5068275;28;20263;-79
2021/09/11 08:47:26;;;;;;;0.63;0.50;;;26.40;99.90;;;;;;5068154;28;20164;-78
2021/09/11 08:49:52;;;;;;;1.77;1.20;;;26.30;99.90;;;;;;5067916;28;20216;-79
2021/09/11 08:52:19;;;;;;;0.85;0.85;;;26.40;99.90;;;;;;5068057;28;20160;-78
2021/09/11 08:54:45;;;;;;;1.50;1.40;;;26.30;99.90;;;;;;5067925;28;20179;-79
2021/09/11 08:57:21;;;;;;;2.53;1.80;;;27.00;99.90;;;;;;5068338;28;20161;-78
2021/09/11 08:59:48;;;;;;;0.80;0.75;;;27.80;99.90;;;;;;5049964;28;20217;-80
2021/09/11 09:02:15;;;;;;;1.05;0.80;;;27.00;99.90;;;;;;5067635;28;20164;-79
2021/09/11 09:04:55;;;;;;;2.28;1.50;;;26.80;99.70;;;;;;5050020;28;20195;-78
2021/09/11 09:07:40;;;;;;;0.88;0.82;;;27.20;99.90;;;;;;5066653;28;20168;-78
2021/09/11 09:10:08;;;;;;;17.02;1.13;;;26.20;99.90;;;;;;5066703;28;20184;-78
2021/09/11 09:12:41;;;;;;;1.83;1.73;;;25.80;99.90;;;;;;5058128;28;20173;-79
2021/09/11 09:15:11;;;;;;;9.55;1.02;;;26.30;99.90;;;;;;5056382;28;20631;-78
2021/09/11 09:18:03;;;;;;;0.73;0.73;;;25.80;99.90;;;;;;5067917;28;20163;-79
2021/09/11 09:20:30;;;;;;;0.50;0.50;;;25.40;99.90;;;;;;5046362;28;20192;-78
2021/09/11 09:22:58;;;;;;;1.35;1.25;;;25.70;99.90;;;;;;5047746;28;20160;-79
2021/09/11 09:25:33;;;;;;;0.60;0.60;;;26.70;99.90;;;;;;5029854;28;20276;-78
2021/09/11 09:28:11;;;;;;;1.23;1.13;;;26.40;99.90;;;;;;5047773;28;20160;-79
2021/09/11 09:30:41;;;;;;;1.40;1.00;;;26.40;99.90;;;;;;5029589;28;20266;-79
2021/09/11 09:33:17;;;;;;;1.55;1.20;;;26.00;99.90;;;;;;5047774;28;20156;-80
2021/09/11 09:35:43;;;;;;;8.50;2.15;;;26.20;99.90;;;;;;5047780;28;20697;-79
2021/09/11 09:38:10;;;;;;;0.85;0.73;;;26.40;99.90;;;;;;5030090;28;20166;-78
2021/09/11 09:40:46;;;;;;;0.65;0.65;;;27.50;99.90;;;;;;5047986;28;20167;-78
2021/09/11 09:43:32;;;;;;;0.88;0.88;;;27.40;99.90;;;;;;5047494;28;20164;-79
2021/09/11 09:46:06;;;;;;;1.25;0.77;;;27.60;99.80;;;;;;5047896;28;20195;-77
2021/09/11 09:48:34;;;;;;;1.15;1.05;;;27.90;99.90;;;;;;5069146;28;20164;-79
2021/09/11 09:51:08;;;;;;;1.58;1.15;;;28.10;99.50;;;;;;5046528;28;20571;-79
2021/09/11 09:53:36;;;;;;;1.10;1.00;;;28.30;99.90;;;;;;5046334;28;20188;-79
2021/09/11 09:56:03;;;;;;;6.22;1.00;;;28.70;98.80;;;;;;5047549;28;20157;-82
2021/09/11 09:58:35;;;;;;;1.10;1.10;;;28.40;99.50;;;;;;5046403;28;20259;-82
2021/09/11 10:01:01;;;;;;;1.27;0.90;;;28.00;99.90;;;;;;5046694;28;20176;-83
2021/09/11 10:03:27;;;;;;;1.52;0.90;;;27.90;98.50;;;;;;5045885;28;20244;-82
2021/09/11 10:06:00;;;;;;;0.65;0.55;;;28.50;99.90;;;;;;5047592;28;20165;-81
2021/09/11 10:08:29;;;;;;;1.88;1.05;;;29.30;99.00;;;;;;5046328;28;20176;-81
2021/09/11 10:10:55;;;;;;;0.63;0.60;;;29.10;98.50;;;;;;5045947;28;20224;-81
2021/09/11 10:13:23;;;;;;;1.10;1.00;;;28.10;99.10;;;;;;5046813;28;20169;-81
2021/09/11 10:16:00;;;;;;;1.50;1.40;;;28.50;98.90;;;;;;5047285;28;20181;-76
2021/09/11 10:18:38;;;;;;;1.30;1.20;;;28.50;99.60;;;;;;5049327;28;20171;-76
2021/09/11 10:21:12;;;;;;;1.08;0.95;;;29.60;99.90;;;;;;5049684;28;20189;-76
2021/09/11 10:23:38;;;;;;;0.73;0.73;;;29.10;97.90;;;;;;5049249;28;20319;-76
2021/09/11 10:26:04;;;;;;;0.57;0.57;;;29.00;97.40;;;;;;5049380;28;20184;-80
2021/09/11 10:28:30;;;;;;;2.28;1.25;;;30.10;96.80;;;;;;5050760;28;20203;-77
2021/09/11 10:31:12;;;;;;;1.85;1.67;;;29.50;96.90;;;;;;5050475;28;20188;-77
2021/09/11 10:33:42;;;;;;;1.17;1.08;;;29.20;99.00;;;;;;5050514;28;20153;-77
2021/09/11 10:36:47;;;;;;;1.17;1.02;;;30.50;97.20;;;;;;5050587;28;20169;-76
2021/09/11 10:39:18;;;;;;;1.35;0.73;;;29.70;96.30;;;;;;5048945;28;20192;-77
2021/09/11 10:42:03;;;;;;;2.28;1.23;;;28.70;96.80;;;;;;5050577;28;20164;-76
2021/09/11 10:44:29;;;;;;;0.80;0.68;;;29.30;95.50;;;;;;5050368;28;20236;-76
2021/09/11 10:46:55;;;;;;;0.70;0.70;;;29.60;94.90;;;;;;5049024;28;20174;-75
2021/09/11 10:49:29;;;;;;;3.53;0.93;;;28.70;95.10;;;;;;5048789;28;20239;-75
2021/09/11 10:52:02;;;;;;;0.50;0.50;;;29.00;94.60;;;;;;5048648;28;20194;-76
2021/09/11 10:54:32;;;;;;;0.63;0.63;;;29.20;94.80;;;;;;5049018;28;20169;-75
2021/09/11 10:57:01;;;;;;;0.63;0.63;;;28.20;94.90;;;;;;5050212;28;20152;-75
2021/09/11 10:59:28;;;;;;;0.50;0.45;;;28.90;94.20;;;;;;5050098;28;20237;-76
2021/09/11 11:02:02;;;;;;;0.98;0.65;;;29.10;93.90;;;;;;5050242;28;20601;-76
2021/09/11 11:04:31;;;;;;;0.57;0.47;;;28.30;95.70;;;;;;5048965;28;20171;-76
2021/09/11 11:06:59;;;;;;;0.52;0.52;;;29.50;95.00;;;;;;5048519;28;20177;-75
2021/09/11 11:09:25;;;;;;;0.32;0.28;;;30.20;92.80;;;;;;5050008;28;20212;-75
2021/09/11 11:11:54;;;;;;;1.45;0.93;;;29.00;93.90;;;;;;5049783;28;20149;-77
2021/09/11 11:14:20;;;;;;;0.57;0.57;;;28.90;95.00;;;;;;5049957;28;20172;-76
2021/09/11 11:16:54;;;;;;;1.30;0.47;;;29.70;95.50;;;;;;5048373;28;20187;-75
2021/09/11 11:19:24;;;;;;;3.15;1.20;;;30.40;92.10;;;;;;5049337;28;20177;-75
2021/09/11 11:22:00;;;;;;;1.83;1.70;;;29.40;93.10;;;;;;5049756;28;20172;-75
2021/09/11 11:24:29;;;;;;;0.50;0.50;;;30.70;92.90;;;;;;5048560;28;20168;-75
2021/09/11 11:26:59;;;;;;;1.52;0.73;;;31.50;91.50;;;;;;5048000;28;20173;-75
2021/09/11 11:29:26;;;;;;;1.02;1.02;;;31.90;91.00;;;;;;5048226;28;20172;-75
2021/09/11 11:31:52;;;;;;;0.70;0.60;;;32.70;91.40;;;;;;5049622;28;20149;-75
2021/09/11 11:34:18;;;;;;;3.33;1.33;;;32.50;90.70;;;;;;5048112;28;20227;-76
2021/09/11 11:36:57;;;;;;;0.60;0.60;;;30.70;92.40;;;;;;5049391;28;20228;-76
2021/09/11 11:39:27;;;;;;;1.00;0.98;;;31.30;91.60;;;;;;5048047;28;20168;-78
2021/09/11 11:42:16;;;;;;;0.90;0.90;;;31.60;90.70;;;;;;5049411;28;20203;-77
2021/09/11 11:44:44;;;;;;;0.75;0.75;;;30.90;93.50;;;;;;5037559;28;20191;-77
2021/09/11 11:47:19;;;;;;;1.25;1.08;;;31.90;90.30;;;;;;5047668;28;20192;-77
2021/09/11 11:49:45;;;;;;;1.60;1.50;;;32.90;88.80;;;;;;5047624;28;20274;-76
2021/09/11 11:52:13;;;;;;;5.63;0.85;;;32.70;89.00;;;;;;5048950;28;20169;-76
2021/09/11 11:54:42;;;;;;;0.60;0.57;;;32.50;90.20;;;;;;5047860;28;20200;-77
2021/09/11 11:57:22;;;;;;;0.73;0.73;;;32.20;89.90;;;;;;5047883;28;20208;-77
2021/09/11 12:00:09;;;;;;;0.65;0.65;;;32.10;90.00;;;;;;5047539;28;20172;-77
2021/09/11 12:02:40;;;;;;;1.55;0.60;;;30.30;92.70;;;;;;5047801;28;20588;-77
2021/09/11 12:05:25;;;;;;;0.57;0.57;;;30.20;91.50;;;;;;5048989;28;20172;-77
2021/09/11 12:08:03;;;;;;;1.75;1.00;;;31.50;90.70;;;;;;5049438;28;20239;-77
2021/09/11 12:10:31;;;;;;;1.02;0.98;;;31.20;90.50;;;;;;5050333;28;20195;-76
2021/09/11 12:13:07;;;;;;;11.90;1.90;;;30.70;91.50;;;;;;5047406;28;20266;-77
2021/09/11 12:15:35;;;;;;;2.08;0.88;;;30.70;90.00;;;;;;5048739;28;20157;-77
2021/09/11 12:18:16;;;;;;;4.32;0.98;;;29.00;92.00;;;;;;5047463;28;20235;-76
2021/09/11 12:20:53;;;;;;;0.55;0.55;;;27.10;94.30;;;;;;5048389;28;20186;-76
2021/09/11 12:23:28;;;;;;;1.30;1.20;;;26.70;95.20;;;;;;5048768;28;20240;-76
2021/09/11 12:26:05;;;;;;;0.98;0.88;;;26.00;95.30;;;;;;5047257;28;20719;-76
2021/09/11 12:28:43;;;;;;;1.33;1.23;;;26.00;96.20;;;;;;5048612;28;20205;-76
2021/09/11 12:31:21;;;;;;;0.82;0.82;;;26.10;95.50;;;;;;5047185;28;20203;-77
2021/09/11 12:33:50;;;;;;;1.52;1.02;;;26.30;97.10;;;;;;5046933;28;20169;-77
2021/09/11 12:36:39;;;;;;;0.73;0.73;;;26.30;96.30;;;;;;5047935;28;20165;-77
2021/09/11 12:39:06;;;;;;;0.60;0.50;;;26.30;96.10;;;;;;5048255;28;20153;-76
2021/09/11 12:41:34;;;;;;;0.65;0.65;;;25.90;97.10;;;;;;5047183;28;20173;-77
2021/09/11 12:44:01;;;;;;;0.30;0.30;;;25.40;97.50;;;;;;5048476;28;20211;-77
2021/09/11 12:46:39;;;;;;;0.65;0.65;;;25.30;97.20;;;;;;5048316;28;20206;-78
2021/09/11 12:49:08;;;;;;;0.40;0.40;;;25.10;97.60;;;;;;5051355;28;20215;-78